Time;durP1;ratioP1;P1;durP2;ratioP2;P2;SDS_P1;SDS_P2;PMS_P1;PMS_P2;Temp;Humidity;BMP_temperature;BMP_pressure;BME280_temperature;BME280_humidity;BME280_pressure;Samples;Min_cycle;Max_cycle;Signal;HPM_P1;HPM_P2
2023/12/29 00:00:38;;;;;;;13.10;10.77;;;;;;;;;;5091310;28;20199;-74
2023/12/29 00:03:07;;;;;;;12.70;10.38;;;;;;;;;;5072582;28;20203;-74
2023/12/29 00:05:36;;;;;;;11.60;10.35;;;;;;;;;;5090420;28;20287;-74
2023/12/29 00:08:06;;;;;;;10.23;9.07;;;;;;;;;;5073106;28;20203;-74
2023/12/29 00:10:34;;;;;;;10.45;9.35;;;;;;;;;;5091371;28;20199;-74
2023/12/29 00:13:02;;;;;;;12.73;10.77;;;;;;;;;;5090833;28;20195;-74
2023/12/29 00:15:30;;;;;;;12.00;9.90;;;;;;;;;;5090163;28;20199;-74
2023/12/29 00:17:58;;;;;;;13.15;10.63;;;;;;;;;;5091065;28;20274;-74
2023/12/29 00:20:27;;;;;;;12.73;10.48;;;;;;;;;;5073556;28;20203;-75
2023/12/29 00:22:58;;;;;;;11.82;10.13;;;;;;;;;;5090922;28;20198;-74
2023/12/29 00:25:27;;;;;;;12.73;10.68;;;;;;;;;;5090580;28;20191;-74
2023/12/29 00:27:55;;;;;;;8.85;8.05;;;;;;;;;;5090898;28;20271;-76
2023/12/29 00:30:24;;;;;;;12.70;9.18;;;;;;;;;;5091302;28;20217;-74
2023/12/29 00:32:52;;;;;;;11.70;9.13;;;;;;;;;;5072401;28;20215;-74
2023/12/29 00:35:21;;;;;;;9.40;8.40;;;;;;;;;;5090907;28;20203;-74
2023/12/29 00:37:49;;;;;;;10.85;8.23;;;;;;;;;;5089478;28;20233;-74
2023/12/29 00:40:18;;;;;;;12.00;8.77;;;;;;;;;;5090116;28;20213;-73
2023/12/29 00:42:48;;;;;;;8.20;7.40;;;;;;;;;;5090519;28;20199;-73
2023/12/29 00:45:16;;;;;;;9.38;8.25;;;;;;;;;;5090691;28;20226;-74
2023/12/29 00:47:44;;;;;;;8.52;7.70;;;;;;;;;;5075059;28;20212;-74
2023/12/29 00:50:12;;;;;;;9.73;8.43;;;;;;;;;;5072417;28;20207;-74
2023/12/29 00:52:41;;;;;;;10.25;8.10;;;;;;;;;;5072674;28;20207;-72
2023/12/29 00:55:09;;;;;;;8.65;7.35;;;;;;;;;;5091257;28;20207;-73
2023/12/29 00:57:37;;;;;;;9.60;8.63;;;;;;;;;;5090791;28;20199;-74
2023/12/29 01:00:10;;;;;;;10.30;9.10;;;;;;;;;;5066887;28;20200;-74
2023/12/29 01:02:38;;;;;;;10.23;8.52;;;;;;;;;;5090239;28;20786;-74
2023/12/29 01:05:08;;;;;;;12.50;9.05;;;;;;;;;;5090426;28;20234;-74
2023/12/29 01:07:36;;;;;;;12.27;8.43;;;;;;;;;;5090657;28;20414;-73
2023/12/29 01:10:05;;;;;;;8.98;7.97;;;;;;;;;;5090761;28;20215;-73
2023/12/29 01:12:33;;;;;;;10.18;7.28;;;;;;;;;;5089960;28;20214;-74
2023/12/29 01:15:01;;;;;;;8.68;7.60;;;;;;;;;;5089966;28;20211;-73
2023/12/29 01:17:31;;;;;;;9.68;8.68;;;;;;;;;;5089960;28;20207;-74
2023/12/29 01:19:59;;;;;;;7.57;6.95;;;;;;;;;;5089933;28;20200;-74
2023/12/29 01:22:28;;;;;;;8.55;7.63;;;;;;;;;;5071598;28;20192;-74
2023/12/29 01:24:56;;;;;;;8.10;6.82;;;;;;;;;;5072727;28;20203;-74
2023/12/29 01:27:24;;;;;;;7.57;6.90;;;;;;;;;;5074180;28;20195;-74
2023/12/29 01:29:53;;;;;;;8.93;7.85;;;;;;;;;;5080692;28;20199;-74
2023/12/29 01:32:21;;;;;;;7.68;6.95;;;;;;;;;;5092911;28;20222;-74
2023/12/29 01:34:51;;;;;;;8.27;6.32;;;;;;;;;;5094012;28;20560;-74
2023/12/29 01:37:20;;;;;;;9.45;6.50;;;;;;;;;;5093072;28;20648;-74
2023/12/29 01:39:48;;;;;;;8.52;7.30;;;;;;;;;;5094036;28;20202;-74
2023/12/29 01:42:16;;;;;;;9.82;7.43;;;;;;;;;;5074322;28;20602;-74
2023/12/29 01:44:44;;;;;;;7.95;6.85;;;;;;;;;;5072465;28;20271;-74
2023/12/29 01:47:15;;;;;;;11.07;7.25;;;;;;;;;;5073136;28;20210;-75
2023/12/29 01:49:45;;;;;;;7.07;6.47;;;;;;;;;;5090702;28;20203;-74
2023/12/29 01:52:17;;;;;;;7.65;6.95;;;;;;;;;;5086117;28;20207;-74
2023/12/29 01:54:47;;;;;;;6.80;6.13;;;;;;;;;;5093572;28;20205;-74
2023/12/29 01:57:16;;;;;;;8.18;7.25;;;;;;;;;;5074904;28;20214;-74
2023/12/29 01:59:45;;;;;;;9.13;7.22;;;;;;;;;;5059130;28;20665;-74
2023/12/29 02:02:15;;;;;;;8.27;7.47;;;;;;;;;;5077712;28;20199;-69
2023/12/29 02:04:43;;;;;;;6.93;6.22;;;;;;;;;;5095345;28;20650;-68
2023/12/29 02:07:12;;;;;;;7.50;6.80;;;;;;;;;;5076733;28;20741;-69
2023/12/29 02:09:42;;;;;;;7.15;6.55;;;;;;;;;;5077943;28;20207;-68
2023/12/29 02:12:10;;;;;;;6.80;5.00;;;;;;;;;;5095495;28;20268;-68
2023/12/29 02:14:38;;;;;;;6.13;5.53;;;;;;;;;;5091046;28;20572;-68
2023/12/29 02:17:10;;;;;;;10.52;7.18;;;;;;;;;;5095718;28;20203;-69
2023/12/29 02:19:39;;;;;;;6.32;5.70;;;;;;;;;;5095455;28;20191;-68
2023/12/29 02:22:08;;;;;;;7.53;6.40;;;;;;;;;;5095336;28;20561;-68
2023/12/29 02:24:36;;;;;;;8.50;6.15;;;;;;;;;;5061187;28;20199;-68
2023/12/29 02:27:14;;;;;;;9.52;6.75;;;;;;;;;;5094555;28;20204;-68
2023/12/29 02:29:45;;;;;;;7.78;6.05;;;;;;;;;;5095554;28;20248;-69
2023/12/29 02:32:18;;;;;;;6.72;6.13;;;;;;;;;;5095505;28;20225;-68
2023/12/29 02:34:49;;;;;;;6.72;6.13;;;;;;;;;;5075429;28;20196;-68
2023/12/29 02:37:17;;;;;;;7.10;6.35;;;;;;;;;;5077762;28;20206;-68
2023/12/29 02:39:47;;;;;;;8.80;5.55;;;;;;;;;;5094229;28;20203;-69
2023/12/29 02:42:16;;;;;;;5.85;5.35;;;;;;;;;;5113588;28;20231;-68
2023/12/29 02:44:44;;;;;;;6.90;6.22;;;;;;;;;;5081601;28;20597;-68
2023/12/29 02:47:13;;;;;;;11.05;6.55;;;;;;;;;;5094677;28;20203;-68
2023/12/29 02:49:41;;;;;;;5.25;4.80;;;;;;;;;;5094996;28;20203;-72
2023/12/29 02:52:09;;;;;;;8.10;4.70;;;;;;;;;;5093993;28;20211;-68
2023/12/29 02:54:37;;;;;;;6.35;5.85;;;;;;;;;;5093548;28;20567;-68
2023/12/29 02:57:06;;;;;;;9.23;5.20;;;;;;;;;;5099171;28;20210;-68
2023/12/29 02:59:37;;;;;;;5.63;5.05;;;;;;;;;;5094765;28;20195;-69
2023/12/29 03:02:05;;;;;;;5.97;5.47;;;;;;;;;;5092996;28;20183;-69
2023/12/29 03:04:33;;;;;;;7.75;7.00;;;;;;;;;;5092425;28;20203;-68
2023/12/29 03:07:02;;;;;;;8.60;7.70;;;;;;;;;;5094677;28;20199;-68
2023/12/29 03:09:30;;;;;;;6.50;5.82;;;;;;;;;;5076452;28;20207;-68
2023/12/29 03:11:58;;;;;;;6.72;5.80;;;;;;;;;;5063708;28;20200;-69
2023/12/29 03:14:26;;;;;;;6.72;6.07;;;;;;;;;;5096619;28;20699;-68
2023/12/29 03:16:57;;;;;;;6.00;5.50;;;;;;;;;;5096220;28;20264;-68
2023/12/29 03:19:25;;;;;;;5.82;5.38;;;;;;;;;;5095565;28;20614;-68
2023/12/29 03:21:54;;;;;;;6.22;5.07;;;;;;;;;;5096282;28;20615;-69
2023/12/29 03:24:22;;;;;;;6.63;5.47;;;;;;;;;;5095895;28;20207;-68
2023/12/29 03:26:51;;;;;;;5.43;4.95;;;;;;;;;;5096164;28;20211;-68
2023/12/29 03:29:19;;;;;;;5.80;5.30;;;;;;;;;;5095796;28;20280;-69
2023/12/29 03:31:48;;;;;;;7.07;5.43;;;;;;;;;;5095254;28;20241;-68
2023/12/29 03:34:19;;;;;;;6.93;6.30;;;;;;;;;;5090704;28;20226;-68
2023/12/29 03:36:47;;;;;;;6.13;5.53;;;;;;;;;;5073520;28;20209;-68
2023/12/29 03:39:16;;;;;;;7.32;6.63;;;;;;;;;;5095662;28;20282;-69
2023/12/29 03:41:44;;;;;;;22.10;16.73;;;;;;;;;;5094656;28;20249;-68
2023/12/29 03:44:12;;;;;;;18.27;12.65;;;;;;;;;;5087008;28;20223;-68
2023/12/29 03:46:40;;;;;;;6.30;5.80;;;;;;;;;;5056645;28;20200;-69
2023/12/29 03:49:09;;;;;;;8.25;5.60;;;;;;;;;;5093935;28;20546;-69
2023/12/29 03:51:38;;;;;;;9.10;7.40;;;;;;;;;;5077212;28;20221;-68
2023/12/29 03:54:07;;;;;;;16.58;11.45;;;;;;;;;;5094577;28;20275;-69
2023/12/29 03:56:35;;;;;;;6.95;5.78;;;;;;;;;;5076758;28;20204;-68
2023/12/29 03:59:03;;;;;;;6.18;5.40;;;;;;;;;;5076862;28;20213;-68
2023/12/29 04:01:34;;;;;;;7.70;6.80;;;;;;;;;;5075210;28;20211;-68
2023/12/29 04:04:03;;;;;;;11.88;7.57;;;;;;;;;;5087030;28;20190;-68
2023/12/29 04:06:31;;;;;;;6.50;5.80;;;;;;;;;;5094402;28;20637;-69
2023/12/29 04:09:00;;;;;;;59.30;31.95;;;;;;;;;;5094366;28;20205;-68
2023/12/29 04:11:29;;;;;;;29.65;18.13;;;;;;;;;;5094585;28;20282;-69
2023/12/29 04:13:57;;;;;;;11.27;7.32;;;;;;;;;;5094963;28;20211;-68
2023/12/29 04:16:25;;;;;;;4.45;4.05;;;;;;;;;;5076797;28;20575;-68
2023/12/29 04:18:53;;;;;;;3.83;3.55;;;;;;;;;;5094454;28;20207;-66
2023/12/29 04:21:22;;;;;;;3.17;3.00;;;;;;;;;;5094844;28;20207;-65
2023/12/29 04:23:50;;;;;;;4.28;3.97;;;;;;;;;;5086983;28;20256;-72
2023/12/29 04:26:19;;;;;;;3.53;3.33;;;;;;;;;;5090991;28;20203;-75
2023/12/29 04:28:48;;;;;;;3.15;2.95;;;;;;;;;;5089038;28;20565;-75
2023/12/29 04:31:16;;;;;;;4.25;3.22;;;;;;;;;;5083537;28;20199;-75
2023/12/29 04:33:44;;;;;;;2.90;2.70;;;;;;;;;;5090642;28;20218;-74
2023/12/29 04:36:13;;;;;;;3.10;3.00;;;;;;;;;;5091015;28;20199;-75
2023/12/29 04:38:41;;;;;;;2.85;2.55;;;;;;;;;;5090998;28;20206;-74
2023/12/29 04:41:10;;;;;;;4.13;3.08;;;;;;;;;;5090003;28;20239;-75
2023/12/29 04:43:39;;;;;;;3.85;3.58;;;;;;;;;;5090580;28;20251;-75
2023/12/29 04:46:08;;;;;;;3.75;3.55;;;;;;;;;;5091202;28;20219;-75
2023/12/29 04:48:36;;;;;;;3.42;3.22;;;;;;;;;;5089786;28;20542;-75
2023/12/29 04:51:04;;;;;;;3.55;3.25;;;;;;;;;;5090768;28;20191;-75
2023/12/29 04:53:33;;;;;;;3.55;3.35;;;;;;;;;;5083561;28;20215;-75
2023/12/29 04:56:01;;;;;;;3.65;3.35;;;;;;;;;;5089510;28;20207;-75
2023/12/29 04:58:29;;;;;;;3.40;3.20;;;;;;;;;;5069146;28;20204;-74
2023/12/29 05:00:59;;;;;;;3.67;3.38;;;;;;;;;;5064208;28;20195;-75
2023/12/29 05:03:27;;;;;;;3.75;3.55;;;;;;;;;;5093946;28;20198;-75
2023/12/29 05:05:55;;;;;;;4.10;3.72;;;;;;;;;;5075150;28;20220;-74
2023/12/29 05:08:23;;;;;;;3.65;3.45;;;;;;;;;;5094422;28;20252;-75
2023/12/29 05:10:51;;;;;;;3.50;2.92;;;;;;;;;;5094705;28;20211;-75
2023/12/29 05:13:20;;;;;;;4.28;3.75;;;;;;;;;;5076685;28;20225;-74
2023/12/29 05:15:48;;;;;;;4.10;3.80;;;;;;;;;;5094440;28;20264;-75
2023/12/29 05:18:17;;;;;;;4.28;3.92;;;;;;;;;;5094500;28;20555;-75
2023/12/29 05:20:46;;;;;;;3.75;3.45;;;;;;;;;;5094312;28;20244;-75
2023/12/29 05:23:14;;;;;;;4.57;4.18;;;;;;;;;;5093926;28;20531;-74
2023/12/29 05:25:42;;;;;;;6.68;4.50;;;;;;;;;;5094162;28;20191;-74
2023/12/29 05:28:10;;;;;;;5.35;4.88;;;;;;;;;;5094263;28;20214;-71
2023/12/29 05:30:39;;;;;;;5.80;5.30;;;;;;;;;;5093916;28;20259;-74
2023/12/29 05:33:07;;;;;;;4.78;4.28;;;;;;;;;;5089566;28;20195;-75
2023/12/29 05:35:36;;;;;;;5.13;4.63;;;;;;;;;;5094054;28;20205;-76
2023/12/29 05:38:05;;;;;;;6.13;5.63;;;;;;;;;;5075494;28;20605;-75
2023/12/29 05:40:33;;;;;;;5.80;5.30;;;;;;;;;;5075809;28;20227;-74
2023/12/29 05:43:01;;;;;;;6.18;5.57;;;;;;;;;;5093609;28;20188;-73
2023/12/29 05:45:30;;;;;;;13.27;7.57;;;;;;;;;;5075663;28;20228;-74
2023/12/29 05:47:58;;;;;;;8.32;7.53;;;;;;;;;;5093128;28;20210;-74
2023/12/29 05:50:26;;;;;;;7.97;7.18;;;;;;;;;;5093676;28;20199;-74
2023/12/29 05:52:56;;;;;;;9.55;6.82;;;;;;;;;;5092641;28;20207;-74
2023/12/29 05:55:24;;;;;;;8.70;6.78;;;;;;;;;;5079492;28;20215;-74
2023/12/29 05:57:53;;;;;;;7.60;6.90;;;;;;;;;;5093428;28;20205;-74
2023/12/29 06:00:21;;;;;;;6.55;5.95;;;;;;;;;;5075364;28;20199;-74
2023/12/29 06:02:49;;;;;;;7.97;7.28;;;;;;;;;;5092868;28;20206;-73
2023/12/29 06:05:18;;;;;;;8.15;7.15;;;;;;;;;;5092795;28;20222;-74
2023/12/29 06:07:46;;;;;;;9.10;7.70;;;;;;;;;;5092895;28;20203;-73
2023/12/29 06:10:15;;;;;;;8.52;6.72;;;;;;;;;;5073493;28;20204;-74
2023/12/29 06:12:44;;;;;;;10.40;7.85;;;;;;;;;;5074000;28;20226;-74
2023/12/29 06:15:14;;;;;;;7.90;6.95;;;;;;;;;;5075554;28;20226;-75
2023/12/29 06:17:43;;;;;;;7.38;6.68;;;;;;;;;;5083542;28;20188;-73
2023/12/29 06:20:12;;;;;;;8.23;7.18;;;;;;;;;;5085427;28;20568;-73
2023/12/29 06:22:41;;;;;;;8.70;7.65;;;;;;;;;;5093028;28;20207;-74
2023/12/29 06:25:11;;;;;;;8.48;7.68;;;;;;;;;;5092579;28;20195;-74
2023/12/29 06:27:41;;;;;;;8.93;8.00;;;;;;;;;;5076945;28;20195;-74
2023/12/29 06:30:10;;;;;;;9.65;8.23;;;;;;;;;;5093077;28;20191;-74
2023/12/29 06:32:39;;;;;;;7.88;7.07;;;;;;;;;;5093509;28;20232;-74
2023/12/29 06:35:09;;;;;;;9.40;8.05;;;;;;;;;;5072417;28;20288;-74
2023/12/29 06:37:38;;;;;;;12.70;8.20;;;;;;;;;;5080142;28;20199;-74
2023/12/29 06:40:07;;;;;;;8.68;7.78;;;;;;;;;;5093212;28;20210;-74
2023/12/29 06:42:36;;;;;;;10.57;7.47;;;;;;;;;;5078789;28;20194;-74
2023/12/29 06:45:07;;;;;;;11.75;8.13;;;;;;;;;;5070487;28;20285;-73
2023/12/29 06:47:36;;;;;;;8.25;7.40;;;;;;;;;;5078413;28;20196;-74
2023/12/29 06:50:06;;;;;;;7.78;6.97;;;;;;;;;;5070457;28;20203;-73
2023/12/29 06:52:34;;;;;;;8.55;7.65;;;;;;;;;;5074462;28;20558;-75
2023/12/29 06:55:03;;;;;;;9.55;8.40;;;;;;;;;;5092027;28;20219;-74
2023/12/29 06:57:32;;;;;;;10.27;7.47;;;;;;;;;;5091979;28;20209;-75
2023/12/29 07:00:00;;;;;;;8.18;6.57;;;;;;;;;;5093218;28;20203;-74
2023/12/29 07:02:30;;;;;;;8.75;7.85;;;;;;;;;;5087291;28;20203;-72
2023/12/29 07:04:58;;;;;;;11.00;8.32;;;;;;;;;;5088635;28;20206;-74
2023/12/29 07:07:27;;;;;;;8.00;7.20;;;;;;;;;;5091121;28;20203;-74
2023/12/29 07:09:55;;;;;;;7.82;6.70;;;;;;;;;;5091933;28;20200;-74
2023/12/29 07:12:23;;;;;;;7.28;6.32;;;;;;;;;;5091682;28;20261;-68
2023/12/29 07:14:52;;;;;;;10.15;8.02;;;;;;;;;;5076335;28;20207;-68
2023/12/29 07:17:20;;;;;;;7.50;6.32;;;;;;;;;;5094754;28;20200;-68
2023/12/29 07:19:50;;;;;;;7.20;6.50;;;;;;;;;;5091612;28;20202;-68
2023/12/29 07:22:18;;;;;;;6.30;5.80;;;;;;;;;;5095808;28;20199;-67
2023/12/29 07:24:47;;;;;;;6.25;5.65;;;;;;;;;;5093144;28;20188;-68
2023/12/29 07:27:15;;;;;;;6.50;5.90;;;;;;;;;;5093864;28;20221;-67
2023/12/29 07:29:43;;;;;;;6.45;5.85;;;;;;;;;;5085741;28;20221;-68
2023/12/29 07:32:12;;;;;;;6.38;5.78;;;;;;;;;;5092129;28;20199;-67
2023/12/29 07:34:40;;;;;;;7.15;5.82;;;;;;;;;;5089717;28;20215;-68
2023/12/29 07:37:10;;;;;;;6.00;5.25;;;;;;;;;;5077222;28;20202;-68
2023/12/29 07:39:38;;;;;;;6.70;6.10;;;;;;;;;;5093327;28;20281;-68
2023/12/29 07:42:07;;;;;;;6.60;5.93;;;;;;;;;;5091547;28;20237;-69
2023/12/29 07:44:35;;;;;;;5.72;5.22;;;;;;;;;;5091569;28;20294;-69
2023/12/29 07:47:04;;;;;;;7.30;6.60;;;;;;;;;;5094166;28;20194;-69
2023/12/29 07:49:32;;;;;;;6.72;6.13;;;;;;;;;;5092543;28;20199;-68
2023/12/29 07:52:00;;;;;;;6.68;6.05;;;;;;;;;;5093091;28;20206;-69
2023/12/29 07:54:30;;;;;;;5.75;5.20;;;;;;;;;;5089183;28;20685;-68
2023/12/29 07:56:58;;;;;;;7.95;6.10;;;;;;;;;;5072399;28;20534;-68
2023/12/29 07:59:26;;;;;;;6.93;6.15;;;;;;;;;;5092343;28;20603;-68
2023/12/29 08:01:55;;;;;;;7.10;6.40;;;;;;;;;;5073925;28;20199;-69
2023/12/29 08:04:23;;;;;;;9.05;6.45;;;;;;;;;;5091436;28;20200;-69
2023/12/29 08:06:51;;;;;;;8.82;6.90;;;;;;;;;;5092925;28;20221;-68
2023/12/29 08:09:20;;;;;;;6.65;6.05;;;;;;;;;;5093455;28;20209;-70
2023/12/29 08:11:50;;;;;;;6.70;5.20;;;;;;;;;;5076327;28;20218;-70
2023/12/29 08:14:18;;;;;;;6.80;6.20;;;;;;;;;;5075597;28;20195;-68
2023/12/29 08:16:47;;;;;;;8.10;6.35;;;;;;;;;;5093199;28;20813;-68
2023/12/29 08:19:16;;;;;;;6.80;6.18;;;;;;;;;;5093573;28;20206;-68
2023/12/29 08:21:44;;;;;;;6.75;6.15;;;;;;;;;;5093452;28;20251;-68
2023/12/29 08:24:12;;;;;;;6.85;6.25;;;;;;;;;;5090244;28;20199;-68
2023/12/29 08:26:45;;;;;;;7.28;6.20;;;;;;;;;;5089700;28;20203;-70
2023/12/29 08:29:15;;;;;;;6.85;6.13;;;;;;;;;;5091661;28;20753;-67
2023/12/29 08:31:43;;;;;;;6.68;5.97;;;;;;;;;;5094451;28;20203;-65
2023/12/29 08:34:12;;;;;;;6.60;6.00;;;;;;;;;;5093178;28;20268;-66
2023/12/29 08:36:40;;;;;;;6.90;6.25;;;;;;;;;;5092976;28;20219;-66
2023/12/29 08:39:09;;;;;;;6.05;5.43;;;;;;;;;;5096286;28;20646;-66
2023/12/29 08:41:37;;;;;;;9.15;6.07;;;;;;;;;;5097782;28;20227;-64
2023/12/29 08:44:05;;;;;;;8.38;5.90;;;;;;;;;;5100190;28;20217;-66
2023/12/29 08:46:35;;;;;;;8.18;6.53;;;;;;;;;;5098327;28;20191;-65
2023/12/29 08:49:03;;;;;;;7.25;6.25;;;;;;;;;;5078423;28;20203;-66
2023/12/29 08:51:31;;;;;;;7.40;6.70;;;;;;;;;;5087406;28;20195;-65
2023/12/29 08:54:00;;;;;;;7.10;5.82;;;;;;;;;;5082822;28;20278;-65
2023/12/29 08:56:29;;;;;;;6.30;5.80;;;;;;;;;;5101894;28;20289;-65
2023/12/29 08:58:57;;;;;;;8.90;5.20;;;;;;;;;;5098462;28;20282;-63
2023/12/29 09:01:25;;;;;;;5.55;5.03;;;;;;;;;;5097300;28;20203;-65
2023/12/29 09:03:55;;;;;;;4.90;4.50;;;;;;;;;;5098210;28;20209;-64
2023/12/29 09:06:23;;;;;;;5.20;4.70;;;;;;;;;;5097406;28;20214;-63
2023/12/29 09:08:51;;;;;;;5.15;4.65;;;;;;;;;;5077601;28;20217;-69
2023/12/29 09:11:19;;;;;;;4.82;4.20;;;;;;;;;;5093797;28;20678;-73
2023/12/29 09:13:47;;;;;;;4.93;4.35;;;;;;;;;;5093596;28;20198;-69
2023/12/29 09:16:16;;;;;;;3.58;3.35;;;;;;;;;;5094365;28;20669;-67
2023/12/29 09:18:44;;;;;;;3.25;3.03;;;;;;;;;;5091755;28;20727;-73
2023/12/29 09:21:13;;;;;;;3.80;3.50;;;;;;;;;;5093516;28;20203;-69
2023/12/29 09:23:42;;;;;;;3.90;3.58;;;;;;;;;;5093655;28;20207;-68
2023/12/29 09:26:10;;;;;;;2.85;2.65;;;;;;;;;;5094313;28;20705;-71
2023/12/29 09:28:38;;;;;;;2.70;2.60;;;;;;;;;;5094501;28;20268;-71
2023/12/29 09:31:06;;;;;;;2.88;2.67;;;;;;;;;;5091665;28;20227;-70
2023/12/29 09:33:34;;;;;;;2.80;2.60;;;;;;;;;;5093443;28;20199;-70
2023/12/29 09:36:03;;;;;;;2.90;2.63;;;;;;;;;;5094095;28;20222;-70
2023/12/29 09:38:32;;;;;;;5.78;3.28;;;;;;;;;;5093702;28;20215;-67
2023/12/29 09:41:01;;;;;;;2.50;2.30;;;;;;;;;;5093607;28;20713;-69
2023/12/29 09:43:29;;;;;;;3.50;2.10;;;;;;;;;;5093724;28;20191;-70
2023/12/29 09:45:58;;;;;;;2.95;2.65;;;;;;;;;;5093970;28;20195;-69
2023/12/29 09:48:28;;;;;;;2.90;2.70;;;;;;;;;;5092719;28;20657;-68
2023/12/29 09:50:56;;;;;;;3.45;2.55;;;;;;;;;;5093651;28;20207;-68
2023/12/29 09:53:26;;;;;;;2.72;2.40;;;;;;;;;;5092374;28;20195;-67
2023/12/29 09:55:56;;;;;;;2.53;2.43;;;;;;;;;;5092979;28;20643;-67
2023/12/29 09:58:25;;;;;;;2.40;2.30;;;;;;;;;;5094084;28;20957;-70
2023/12/29 10:00:54;;;;;;;2.43;1.97;;;;;;;;;;5073617;28;20611;-69
2023/12/29 10:03:22;;;;;;;1.60;1.40;;;;;;;;;;5091744;28;20631;-69
2023/12/29 10:05:52;;;;;;;1.93;1.83;;;;;;;;;;5091691;28;20693;-69
2023/12/29 10:08:21;;;;;;;2.00;1.90;;;;;;;;;;5087403;28;20633;-70
2023/12/29 10:10:50;;;;;;;2.40;1.77;;;;;;;;;;5093014;28;20967;-69
2023/12/29 10:13:21;;;;;;;2.33;2.13;;;;;;;;;;5093036;28;20629;-70
2023/12/29 10:15:51;;;;;;;2.20;2.10;;;;;;;;;;5093383;28;20656;-70
2023/12/29 10:18:23;;;;;;;2.33;2.23;;;;;;;;;;5093090;28;20613;-70
2023/12/29 10:20:54;;;;;;;2.47;2.33;;;;;;;;;;5092983;28;20644;-72
2023/12/29 10:23:24;;;;;;;3.93;3.63;;;;;;;;;;5091833;28;20610;-71
2023/12/29 10:25:53;;;;;;;4.10;2.30;;;;;;;;;;5083512;28;20601;-71
2023/12/29 10:28:23;;;;;;;6.97;2.07;;;;;;;;;;5092041;28;21174;-71
2023/12/29 10:30:51;;;;;;;2.27;2.07;;;;;;;;;;5091795;28;20625;-67
2023/12/29 10:33:24;;;;;;;1.80;1.70;;;;;;;;;;5074488;28;21226;-69
2023/12/29 10:36:02;;;;;;;2.27;2.00;;;;;;;;;;5074276;28;20655;-71
2023/12/29 10:38:30;;;;;;;2.70;2.50;;;;;;;;;;5081239;28;21064;-70
2023/12/29 10:41:12;;;;;;;2.83;2.57;;;;;;;;;;5091756;28;20678;-72
2023/12/29 10:43:42;;;;;;;2.73;2.63;;;;;;;;;;5092380;28;21206;-72
2023/12/29 10:46:10;;;;;;;3.37;2.37;;;;;;;;;;5091574;28;20786;-69
2023/12/29 10:48:39;;;;;;;5.77;3.07;;;;;;;;;;5092525;28;20621;-70
2023/12/29 10:51:09;;;;;;;3.67;2.23;;;;;;;;;;5092210;28;20631;-70
2023/12/29 10:53:38;;;;;;;2.50;2.30;;;;;;;;;;5092622;28;20965;-70
2023/12/29 10:56:20;;;;;;;2.80;2.60;;;;;;;;;;5074082;28;20674;-70
2023/12/29 10:58:59;;;;;;;3.15;2.85;;;;;;;;;;5090083;28;20260;-70
2023/12/29 11:01:27;;;;;;;2.57;2.40;;;;;;;;;;5091686;28;20195;-70
2023/12/29 11:03:59;;;;;;;1.67;1.57;;;;;;;;;;5090650;28;20979;-70
2023/12/29 11:06:28;;;;;;;2.60;2.40;;;;;;;;;;5091368;28;20637;-70
2023/12/29 11:08:57;;;;;;;5.10;1.70;;;;;;;;;;5060178;28;20685;-70
2023/12/29 11:11:25;;;;;;;2.63;2.40;;;;;;;;;;5091950;28;21173;-70
2023/12/29 11:13:55;;;;;;;2.93;2.10;;;;;;;;;;5091133;28;20608;-70
2023/12/29 11:16:23;;;;;;;2.30;2.10;;;;;;;;;;5083729;28;20725;-70
2023/12/29 11:18:52;;;;;;;1.70;1.60;;;;;;;;;;5073386;28;20635;-70
2023/12/29 11:21:20;;;;;;;2.93;1.87;;;;;;;;;;5091158;28;20659;-70
2023/12/29 11:23:49;;;;;;;2.83;2.53;;;;;;;;;;5086198;28;20587;-70
2023/12/29 11:26:17;;;;;;;2.40;1.70;;;;;;;;;;5084545;28;20624;-70
2023/12/29 11:28:48;;;;;;;1.87;1.63;;;;;;;;;;5073386;28;20621;-70
2023/12/29 11:31:18;;;;;;;1.90;1.80;;;;;;;;;;5090602;28;20628;-70
2023/12/29 11:33:48;;;;;;;2.80;1.67;;;;;;;;;;5076603;28;20678;-70
2023/12/29 11:36:20;;;;;;;1.60;1.50;;;;;;;;;;5091069;28;21265;-70
2023/12/29 11:38:55;;;;;;;1.80;1.63;;;;;;;;;;5091117;28;20611;-69
2023/12/29 11:41:26;;;;;;;1.63;1.53;;;;;;;;;;5071380;28;20640;-70
2023/12/29 11:43:58;;;;;;;1.70;1.60;;;;;;;;;;5090626;28;21264;-70
2023/12/29 11:46:39;;;;;;;2.50;2.30;;;;;;;;;;5091032;28;21150;-71
2023/12/29 11:49:08;;;;;;;2.63;2.43;;;;;;;;;;5091087;28;20620;-70
2023/12/29 11:51:37;;;;;;;1.80;1.70;;;;;;;;;;5087702;28;21020;-71
2023/12/29 11:54:06;;;;;;;2.37;2.27;;;;;;;;;;5091054;28;20609;-71
2023/12/29 11:56:38;;;;;;;1.80;1.70;;;;;;;;;;5079055;28;20657;-71
2023/12/29 11:59:21;;;;;;;2.40;2.30;;;;;;;;;;5091494;28;20584;-71
2023/12/29 12:01:52;;;;;;;2.37;2.27;;;;;;;;;;5088070;28;20625;-71
2023/12/29 12:04:35;;;;;;;3.73;2.70;;;;;;;;;;5090538;28;20581;-71
2023/12/29 12:07:04;;;;;;;3.13;2.93;;;;;;;;;;5072459;28;20609;-71
2023/12/29 12:09:34;;;;;;;4.27;3.80;;;;;;;;;;5090469;28;20625;-71
2023/12/29 12:12:04;;;;;;;3.70;3.60;;;;;;;;;;5091135;28;20586;-71
2023/12/29 12:14:49;;;;;;;3.70;3.50;;;;;;;;;;5090656;28;20628;-70
2023/12/29 12:17:35;;;;;;;3.20;3.00;;;;;;;;;;5091471;28;20631;-69
2023/12/29 12:20:05;;;;;;;3.30;3.00;;;;;;;;;;5091121;28;20577;-70
2023/12/29 12:22:33;;;;;;;3.30;3.20;;;;;;;;;;5091174;28;20656;-70
2023/12/29 12:25:03;;;;;;;3.53;3.27;;;;;;;;;;5090654;28;20629;-70
2023/12/29 12:27:32;;;;;;;3.67;3.43;;;;;;;;;;5090091;28;20609;-70
2023/12/29 12:30:00;;;;;;;3.20;3.10;;;;;;;;;;5090540;28;20978;-70
2023/12/29 12:32:29;;;;;;;3.37;3.17;;;;;;;;;;5090801;28;20616;-70
2023/12/29 12:34:58;;;;;;;3.50;3.37;;;;;;;;;;5072508;28;20637;-70
2023/12/29 12:37:27;;;;;;;2.93;2.83;;;;;;;;;;5090801;28;21355;-70
2023/12/29 12:39:56;;;;;;;3.23;3.13;;;;;;;;;;5090790;28;20608;-70
2023/12/29 12:42:25;;;;;;;3.03;2.83;;;;;;;;;;5090101;28;20660;-70
2023/12/29 12:44:57;;;;;;;3.00;2.90;;;;;;;;;;5090501;28;20649;-70
2023/12/29 12:47:29;;;;;;;3.30;3.20;;;;;;;;;;5090614;28;20581;-70
2023/12/29 12:50:00;;;;;;;3.20;3.00;;;;;;;;;;5090563;28;20597;-71
2023/12/29 12:52:31;;;;;;;3.33;3.13;;;;;;;;;;5090221;28;21377;-70
2023/12/29 12:55:00;;;;;;;3.30;3.20;;;;;;;;;;5090633;28;20604;-71
2023/12/29 12:57:29;;;;;;;3.47;3.37;;;;;;;;;;5090689;28;20653;-71
2023/12/29 12:59:58;;;;;;;3.03;2.93;;;;;;;;;;5090480;28;20623;-70
2023/12/29 13:02:26;;;;;;;3.10;2.90;;;;;;;;;;5089639;28;20626;-70
2023/12/29 13:04:55;;;;;;;2.87;2.73;;;;;;;;;;5089781;28;20623;-70
2023/12/29 13:07:24;;;;;;;3.73;2.90;;;;;;;;;;5090158;28;20620;-70
2023/12/29 13:09:54;;;;;;;3.50;3.40;;;;;;;;;;5090438;28;20613;-70
2023/12/29 13:12:22;;;;;;;4.03;3.70;;;;;;;;;;5090572;28;20609;-70
2023/12/29 13:14:51;;;;;;;3.10;3.00;;;;;;;;;;5090670;28;20620;-70
2023/12/29 13:17:22;;;;;;;3.20;3.10;;;;;;;;;;5073130;28;20702;-70
2023/12/29 13:19:57;;;;;;;3.30;3.10;;;;;;;;;;5090884;28;20601;-68
2023/12/29 13:22:28;;;;;;;3.97;2.90;;;;;;;;;;5091448;28;20593;-71
2023/12/29 13:24:56;;;;;;;3.00;2.90;;;;;;;;;;5076706;28;20580;-70
2023/12/29 13:27:25;;;;;;;3.60;3.40;;;;;;;;;;5094021;28;20609;-71
2023/12/29 13:29:53;;;;;;;3.17;2.97;;;;;;;;;;5094376;28;20613;-71
2023/12/29 13:32:23;;;;;;;3.03;2.93;;;;;;;;;;5093579;28;20596;-71
2023/12/29 13:34:56;;;;;;;4.53;2.90;;;;;;;;;;5093659;28;20608;-70
2023/12/29 13:37:27;;;;;;;2.87;2.67;;;;;;;;;;5093752;28;20674;-71
2023/12/29 13:39:59;;;;;;;2.93;2.80;;;;;;;;;;5094296;28;20582;-70
2023/12/29 13:42:30;;;;;;;3.10;3.00;;;;;;;;;;5112247;28;20686;-72
2023/12/29 13:44:59;;;;;;;3.40;3.20;;;;;;;;;;5114747;28;21007;-70
2023/12/29 13:47:27;;;;;;;2.60;2.40;;;;;;;;;;5113936;28;20616;-71
2023/12/29 13:49:56;;;;;;;3.03;2.93;;;;;;;;;;5099952;28;20620;-70
2023/12/29 13:52:24;;;;;;;2.33;2.23;;;;;;;;;;5093143;28;20621;-71
2023/12/29 13:54:53;;;;;;;2.40;2.30;;;;;;;;;;5106028;28;20616;-71
2023/12/29 13:57:31;;;;;;;2.07;1.97;;;;;;;;;;5113642;28;20658;-70
2023/12/29 13:59:59;;;;;;;2.13;2.03;;;;;;;;;;5114468;28;20633;-71
2023/12/29 14:02:30;;;;;;;2.80;2.60;;;;;;;;;;5113152;28;20616;-71
2023/12/29 14:05:12;;;;;;;1.90;1.80;;;;;;;;;;5096817;28;20654;-70
2023/12/29 14:07:47;;;;;;;3.00;2.13;;;;;;;;;;5073625;28;20590;-68
2023/12/29 14:10:16;;;;;;;2.20;2.00;;;;;;;;;;5077050;28;20600;-71
2023/12/29 14:12:44;;;;;;;2.87;2.40;;;;;;;;;;5111370;28;20624;-71
2023/12/29 14:15:13;;;;;;;2.40;2.30;;;;;;;;;;5112090;28;20982;-70
2023/12/29 14:17:41;;;;;;;2.10;2.00;;;;;;;;;;5096473;28;20661;-68
2023/12/29 14:20:10;;;;;;;2.53;2.37;;;;;;;;;;5077392;28;20993;-71
2023/12/29 14:22:38;;;;;;;2.30;2.20;;;;;;;;;;5082980;28;20620;-70
2023/12/29 14:25:07;;;;;;;2.07;1.97;;;;;;;;;;5113969;28;20612;-71
2023/12/29 14:27:39;;;;;;;2.27;2.17;;;;;;;;;;5113721;28;20612;-71
2023/12/29 14:30:19;;;;;;;2.50;2.30;;;;;;;;;;5113551;28;20588;-71
2023/12/29 14:32:47;;;;;;;4.03;2.47;;;;;;;;;;5100622;28;20593;-70
2023/12/29 14:35:15;;;;;;;2.87;2.57;;;;;;;;;;5091888;28;20640;-70
2023/12/29 14:37:43;;;;;;;2.20;2.10;;;;;;;;;;5092736;28;20653;-71
2023/12/29 14:40:12;;;;;;;3.37;3.17;;;;;;;;;;5092946;28;20609;-70
2023/12/29 14:42:42;;;;;;;2.40;2.20;;;;;;;;;;5072620;28;20594;-69
2023/12/29 14:45:11;;;;;;;2.50;2.40;;;;;;;;;;5072581;28;20646;-71
2023/12/29 14:47:39;;;;;;;2.30;2.20;;;;;;;;;;5072049;28;20622;-71
2023/12/29 14:50:07;;;;;;;2.40;2.20;;;;;;;;;;5071788;28;21023;-71
2023/12/29 14:52:36;;;;;;;1.93;1.83;;;;;;;;;;5072477;28;20679;-71